createdAt,value
2018-10-15T00:00:34.060Z,97695.08
2018-10-15T00:03:03.452Z,97696.36
2018-10-15T00:05:32.872Z,97684.87
2018-10-15T00:08:02.379Z,97688.30
2018-10-15T00:10:31.799Z,97688.32
2018-10-15T00:13:01.409Z,97687.45
2018-10-15T00:15:31.436Z,97691.73
2018-10-15T00:18:00.837Z,97698.50
2018-10-15T00:20:30.265Z,97692.96
2018-10-15T00:22:59.664Z,97695.52
2018-10-15T00:25:29.066Z,97689.20
2018-10-15T00:27:58.464Z,97644.22
2018-10-15T00:30:27.895Z,97693.06
2018-10-15T00:32:57.319Z,97691.34
2018-10-15T00:35:26.718Z,97698.63
2018-10-15T00:37:56.121Z,97704.20
2018-10-15T00:40:25.531Z,97709.78
2018-10-15T00:42:54.984Z,97703.83
2018-10-15T00:45:24.392Z,97686.45
2018-10-15T00:47:53.784Z,97706.84
2018-10-15T00:50:23.183Z,97714.10
2018-10-15T00:52:52.587Z,97713.27
2018-10-15T00:55:21.987Z,97710.72
2018-10-15T00:57:51.384Z,97706.07
2018-10-15T01:00:20.793Z,97714.60
2018-10-15T01:02:50.180Z,97712.89
2018-10-15T01:05:19.618Z,97717.18
2018-10-15T01:07:49.032Z,97718.48
2018-10-15T01:10:18.575Z,97723.16
2018-10-15T01:12:47.987Z,97716.36
2018-10-15T01:15:17.380Z,97725.26
2018-10-15T01:17:46.780Z,97721.45
2018-10-15T01:20:16.232Z,97727.00
2018-10-15T01:22:45.630Z,97728.24
2018-10-15T01:25:15.025Z,97727.40
2018-10-15T01:27:44.431Z,97729.97
2018-10-15T01:30:13.872Z,97727.83
2018-10-15T01:32:43.304Z,97729.53
2018-10-15T01:35:12.720Z,97726.16
2018-10-15T01:37:42.108Z,97735.50
2018-10-15T01:40:11.503Z,97735.08
2018-10-15T01:42:40.951Z,97737.64
2018-10-15T01:45:10.353Z,97739.34
2018-10-15T01:47:39.779Z,97738.92
2018-10-15T01:50:09.247Z,97742.73
2018-10-15T01:52:38.976Z,97742.33
2018-10-15T01:55:08.908Z,97738.90
2018-10-15T01:57:38.491Z,97750.81
2018-10-15T02:00:09.331Z,97746.56
2018-10-15T02:02:39.240Z,97750.39
2018-10-15T02:05:09.584Z,97741.88
2018-10-15T02:07:39.050Z,97730.82
2018-10-15T02:10:08.884Z,97734.64
2018-10-15T02:12:38.288Z,97729.14
2018-10-15T02:15:07.768Z,97740.20
2018-10-15T02:17:37.212Z,97739.78
2018-10-15T02:20:09.212Z,97733.80
2018-10-15T02:22:38.638Z,97728.27
2018-10-15T02:25:08.144Z,97733.81
2018-10-15T02:27:37.659Z,97728.27
2018-10-15T02:30:08.644Z,97735.08
2018-10-15T02:32:38.052Z,97736.79
2018-10-15T02:35:07.744Z,97732.53
2018-10-15T02:37:39.255Z,97735.07
2018-10-15T02:40:09.303Z,97732.10
2018-10-15T02:42:39.035Z,97734.23
2018-10-15T02:45:09.320Z,97734.23
2018-10-15T02:47:39.166Z,97734.66
2018-10-15T02:50:09.796Z,97737.64
2018-10-15T02:52:39.267Z,97736.37
2018-10-15T02:55:08.792Z,97732.95
2018-10-15T02:57:38.192Z,97733.80
2018-10-15T03:00:11.370Z,97727.84
2018-10-15T03:02:40.981Z,97726.17
2018-10-15T03:05:11.828Z,97724.47
2018-10-15T03:07:41.752Z,97723.61
2018-10-15T03:10:11.145Z,97724.90
2018-10-15T03:12:40.544Z,97731.70
2018-10-15T03:15:10.877Z,97728.70
2018-10-15T03:17:40.291Z,97731.68
2018-10-15T03:20:11.166Z,97719.37
2018-10-15T03:22:41.248Z,97726.16
2018-10-15T03:25:11.471Z,97725.31
2018-10-15T03:27:41.268Z,97718.08
2018-10-15T03:30:11.822Z,97720.19
2018-10-15T03:32:41.733Z,97726.59
2018-10-15T03:35:11.836Z,97724.03
2018-10-15T03:37:41.292Z,97722.75
2018-10-15T03:40:10.768Z,97721.05
2018-10-15T03:42:40.211Z,97728.69
2018-10-15T03:45:09.679Z,97722.74
2018-10-15T03:47:39.068Z,97720.17
2018-10-15T03:50:08.893Z,97720.16
2018-10-15T03:52:38.294Z,97719.31
2018-10-15T03:55:07.714Z,97724.42
2018-10-15T03:57:37.172Z,97724.00
2018-10-15T04:00:07.611Z,97722.30
2018-10-15T04:02:37.198Z,97725.69
2018-10-15T04:05:06.560Z,97730.78
2018-10-15T04:07:35.970Z,97732.05
2018-10-15T04:10:06.060Z,97736.31
2018-10-15T04:12:35.506Z,97738.45
2018-10-15T04:15:06.348Z,97738.02
2018-10-15T04:17:35.798Z,97740.95
2018-10-15T04:20:05.973Z,97743.07
2018-10-15T04:22:40.444Z,97741.36
2018-10-15T04:25:09.852Z,97743.89
2018-10-15T04:27:39.332Z,97748.55
2018-10-15T04:30:08.769Z,97748.61
2018-10-15T04:32:38.172Z,97747.74
2018-10-15T04:35:07.871Z,97746.05
2018-10-15T04:37:37.714Z,97744.79
2018-10-15T04:40:07.896Z,97747.34
2018-10-15T04:42:37.360Z,97745.64
2018-10-15T04:45:08.879Z,97754.96
2018-10-15T04:47:38.451Z,97747.31
2018-10-15T04:50:08.448Z,97755.81
2018-10-15T04:52:37.833Z,97750.74
2018-10-15T04:55:08.027Z,97756.68
2018-10-15T04:57:38.024Z,97756.27
2018-10-15T05:00:11.454Z,97760.94
2018-10-15T05:02:40.919Z,97763.08
2018-10-15T05:05:12.417Z,97764.78
2018-10-15T05:07:42.056Z,97764.78
2018-10-15T05:10:11.691Z,97771.16
2018-10-15T05:12:41.300Z,97772.86
2018-10-15T05:15:12.012Z,97777.97
2018-10-15T05:17:41.536Z,97780.52
2018-10-15T05:20:12.381Z,97775.01
2018-10-15T05:22:41.975Z,97778.39
2018-10-15T05:25:11.439Z,97781.36
2018-10-15T05:27:40.844Z,97783.90
2018-10-15T05:30:10.573Z,97783.91
2018-10-15T05:32:39.921Z,97794.12
2018-10-15T05:35:11.547Z,97796.67
2018-10-15T05:37:41.649Z,97798.41
2018-10-15T05:40:11.164Z,97798.82
2018-10-15T05:42:40.884Z,97798.84
2018-10-15T05:45:11.922Z,97800.09
2018-10-15T05:47:41.539Z,97804.30
2018-10-15T05:50:12.317Z,97809.41
2018-10-15T05:52:42.388Z,97809.85
2018-10-15T05:55:12.708Z,97814.96
2018-10-15T05:57:42.186Z,97810.70
2018-10-15T06:00:14.068Z,97813.19
2018-10-15T06:02:43.587Z,97814.89
2018-10-15T06:05:12.989Z,97813.66
2018-10-15T06:07:42.379Z,97821.72
2018-10-15T06:10:15.379Z,97822.16
2018-10-15T06:12:46.493Z,97828.11
2018-10-15T06:15:15.940Z,97845.13
2018-10-15T06:17:45.420Z,97839.64
2018-10-15T06:20:14.924Z,97835.36
2018-10-15T06:22:44.417Z,97836.67
2018-10-15T06:25:15.159Z,97830.31
2018-10-15T06:27:45.093Z,97831.61
2018-10-15T06:30:16.740Z,97832.05
2018-10-15T06:32:46.083Z,97826.95
2018-10-15T06:35:15.517Z,97832.47
2018-10-15T06:37:44.907Z,97841.41
2018-10-15T06:40:14.339Z,97838.91
2018-10-15T06:42:43.728Z,97841.47
2018-10-15T06:45:14.232Z,97842.72
2018-10-15T06:47:43.591Z,97843.98
2018-10-15T06:50:13.412Z,97846.08
2018-10-15T06:52:42.827Z,97849.02
2018-10-15T06:55:12.283Z,97844.73
2018-10-15T06:57:41.687Z,97848.55
2018-10-15T07:00:12.485Z,97850.22
2018-10-15T07:02:41.876Z,97857.42
2018-10-15T07:05:11.375Z,97849.73
2018-10-15T07:07:40.834Z,97853.53
2018-10-15T07:10:10.724Z,97855.22
2018-10-15T07:12:40.143Z,97855.16
2018-10-15T07:15:11.120Z,97851.26
2018-10-15T07:17:40.704Z,97856.79
2018-10-15T07:20:10.189Z,97864.38
2018-10-15T07:22:39.585Z,97861.78
2018-10-15T07:25:24.407Z,97851.94
2018-10-15T07:27:54.131Z,97865.09
2018-10-15T07:30:23.921Z,97863.33
2018-10-15T07:32:53.252Z,97862.46
2018-10-15T07:35:22.679Z,97866.30
2018-10-15T07:37:52.071Z,97870.09
2018-10-15T07:40:21.520Z,97874.25
2018-10-15T07:42:50.892Z,97873.76
2018-10-15T07:45:20.376Z,97871.52
2018-10-15T07:47:49.799Z,97867.14
2018-10-15T07:50:19.321Z,97875.19
2018-10-15T07:52:48.703Z,97873.39
2018-10-15T07:55:18.124Z,97881.47
2018-10-15T07:57:47.530Z,97873.28
2018-10-15T08:00:20.600Z,97878.98
2018-10-15T08:02:50.394Z,97880.61
2018-10-15T08:05:19.913Z,97880.13
2018-10-15T08:07:49.803Z,97885.17
2018-10-15T08:10:19.336Z,97878.27
2018-10-15T08:12:49.262Z,97880.75
2018-10-15T08:15:19.655Z,97879.00
2018-10-15T08:17:49.070Z,97875.49
2018-10-15T08:20:19.451Z,97880.53
2018-10-15T08:22:49.473Z,97884.72
2018-10-15T08:25:18.897Z,97881.72
2018-10-15T08:27:48.411Z,97877.84
2018-10-15T08:30:19.018Z,97881.63
2018-10-15T08:32:48.599Z,97885.38
2018-10-15T08:35:18.105Z,97880.61
2018-10-15T08:37:47.500Z,97887.05
2018-10-15T08:40:18.292Z,97888.20
2018-10-15T08:42:52.599Z,97887.66
2018-10-15T08:45:23.293Z,97888.76
2018-10-15T08:47:53.207Z,97894.18
2018-10-15T08:50:22.747Z,97891.45
2018-10-15T08:52:52.620Z,97887.40
2018-10-15T08:55:22.059Z,97892.73
2018-10-15T08:57:51.575Z,97892.38
2018-10-15T09:00:24.653Z,97890.47
2018-10-15T09:02:54.264Z,97889.55
2018-10-15T09:05:23.576Z,97882.70
2018-10-15T09:07:53.142Z,97889.67
2018-10-15T09:10:22.679Z,97886.94
2018-10-15T09:12:52.142Z,97890.59
2018-10-15T09:15:23.224Z,97895.52
2018-10-15T09:17:52.675Z,97893.28
2018-10-15T09:20:22.308Z,97894.78
2018-10-15T09:22:51.707Z,97896.00
2018-10-15T09:25:21.328Z,97900.99
2018-10-15T09:27:50.813Z,97892.23
2018-10-15T09:30:21.588Z,97893.80
2018-10-15T09:32:51.033Z,97904.89
2018-10-15T09:35:20.883Z,97893.49
2018-10-15T09:37:50.380Z,97893.34
2018-10-15T09:40:21.253Z,97896.12
2018-10-15T09:42:50.889Z,97891.41
2018-10-15T09:45:21.160Z,97892.47
2018-10-15T09:47:51.806Z,97888.38
2018-10-15T09:50:21.982Z,97887.14
2018-10-15T09:52:51.519Z,97880.61
2018-10-15T09:55:20.931Z,97882.67
2018-10-15T09:57:50.478Z,97879.28
2018-10-15T10:00:25.228Z,97880.63
2018-10-15T10:02:55.588Z,97878.88
2018-10-15T10:05:25.028Z,97879.75
2018-10-15T10:07:54.584Z,97880.08
2018-10-15T10:10:23.952Z,97880.43
2018-10-15T10:12:53.431Z,97879.00
2018-10-15T10:15:22.800Z,97875.42
2018-10-15T10:17:52.408Z,97879.45
2018-10-15T10:20:21.678Z,97877.52
2018-10-15T10:22:51.144Z,97883.42
2018-10-15T10:25:21.035Z,97875.19
2018-10-15T10:27:50.473Z,97876.45
2018-10-15T10:30:19.884Z,97878.85
2018-10-15T10:32:49.292Z,97863.52
2018-10-15T10:35:57.117Z,97876.05
2018-10-15T10:38:43.302Z,97874.87
2018-10-15T10:41:12.799Z,97867.11
2018-10-15T10:43:42.263Z,97863.27
2018-10-15T10:46:11.786Z,97862.56
2018-10-15T10:48:41.151Z,97861.80
2018-10-15T10:51:10.567Z,97861.70
2018-10-15T10:53:40.047Z,97861.18
2018-10-15T10:56:09.496Z,97866.91
2018-10-15T10:58:39.135Z,97854.78
2018-10-15T11:01:09.112Z,97861.81
2018-10-15T11:03:39.104Z,97856.85
2018-10-15T11:06:08.535Z,97860.30
2018-10-15T11:08:38.006Z,97852.39
2018-10-15T11:11:07.740Z,97850.91
2018-10-15T11:13:37.184Z,97852.59
2018-10-15T11:16:07.321Z,97848.88
2018-10-15T11:18:37.126Z,97846.95
2018-10-15T11:21:06.801Z,97846.31
2018-10-15T11:23:36.225Z,97845.95
2018-10-15T11:26:05.880Z,97847.30
2018-10-15T11:28:35.311Z,97842.13
2018-10-15T11:31:04.782Z,97834.73
2018-10-15T11:33:34.220Z,97836.29
2018-10-15T11:36:03.688Z,97839.21
2018-10-15T11:38:33.092Z,97835.20
2018-10-15T11:41:02.491Z,97835.87
2018-10-15T11:43:31.944Z,97830.81
2018-10-15T11:46:01.368Z,97835.59
2018-10-15T11:48:30.776Z,97830.20
2018-10-15T11:51:00.197Z,97826.83
2018-10-15T11:53:29.673Z,97828.58
2018-10-15T11:55:59.020Z,97828.02
2018-10-15T11:58:28.417Z,97822.00
2018-10-15T12:00:57.916Z,97823.65
2018-10-15T12:03:27.400Z,97822.98
2018-10-15T12:05:56.827Z,97821.60
2018-10-15T12:08:26.243Z,97819.52
2018-10-15T12:10:55.784Z,97820.39
2018-10-15T12:13:25.181Z,97812.66
2018-10-15T12:15:54.591Z,97808.56
2018-10-15T12:18:24.020Z,97804.89
2018-10-15T12:20:53.408Z,97803.41
2018-10-15T12:23:22.799Z,97801.72
2018-10-15T12:25:52.228Z,97798.22
2018-10-15T12:28:21.628Z,97796.34
2018-10-15T12:30:51.103Z,97796.88
2018-10-15T12:33:20.519Z,97795.41
2018-10-15T12:35:49.919Z,97795.73
2018-10-15T12:38:19.343Z,97800.05
2018-10-15T12:40:48.756Z,97789.50
2018-10-15T12:43:18.193Z,97796.79
2018-10-15T12:45:48.534Z,97802.12
2018-10-15T12:48:18.635Z,97797.61
2018-10-15T12:50:48.055Z,97791.08
2018-10-15T12:53:18.227Z,97793.40
2018-10-15T12:55:47.621Z,97794.42
2018-10-15T12:58:17.033Z,97794.12
2018-10-15T13:00:46.512Z,97797.94
2018-10-15T13:03:15.907Z,97791.55
2018-10-15T13:05:45.310Z,97792.52
2018-10-15T13:08:14.732Z,97783.50
2018-10-15T13:10:44.119Z,97785.20
2018-10-15T13:13:13.536Z,97780.19
2018-10-15T13:15:42.933Z,97783.61
2018-10-15T13:18:12.331Z,97783.14
2018-10-15T13:20:41.752Z,97774.59
2018-10-15T13:23:11.139Z,97777.27
2018-10-15T13:25:40.541Z,97781.93
2018-10-15T13:28:09.967Z,97776.37
2018-10-15T13:30:39.427Z,97775.87
2018-10-15T13:33:08.837Z,97775.11
2018-10-15T13:35:38.233Z,97770.53
2018-10-15T13:38:07.684Z,97773.05
2018-10-15T13:40:37.132Z,97776.61
2018-10-15T13:43:06.709Z,97772.25
2018-10-15T13:45:36.216Z,97778.83
2018-10-15T13:48:05.799Z,97774.59
2018-10-15T13:50:35.199Z,97775.30
2018-10-15T13:53:05.244Z,97775.48
2018-10-15T13:55:34.636Z,97770.61
2018-10-15T13:58:04.063Z,97777.87
2018-10-15T14:00:40.265Z,97770.39
2018-10-15T14:03:10.124Z,97774.97
2018-10-15T14:05:39.535Z,97771.72
2018-10-15T14:08:09.097Z,97774.61
2018-10-15T14:10:38.671Z,97774.57
2018-10-15T14:13:08.261Z,97776.48
2018-10-15T14:15:37.811Z,97775.12
2018-10-15T14:18:08.190Z,97778.88
2018-10-15T14:20:37.785Z,97781.33
2018-10-15T14:23:07.465Z,97779.65
2018-10-15T14:25:37.028Z,97781.29
2018-10-15T14:28:06.701Z,97784.41
2018-10-15T14:30:36.302Z,97782.90
2018-10-15T14:33:06.384Z,97781.20
2018-10-15T14:35:35.940Z,97783.64
2018-10-15T14:38:05.684Z,97780.06
2018-10-15T14:40:35.344Z,97781.92
2018-10-15T14:43:05.398Z,97779.80
2018-10-15T14:45:34.994Z,97776.83
2018-10-15T14:48:04.611Z,97780.33
2018-10-15T14:50:34.231Z,97777.84
2018-10-15T14:53:03.783Z,97777.11
2018-10-15T14:55:33.535Z,97783.33
2018-10-15T14:58:03.148Z,97782.75
2018-10-15T15:00:33.701Z,97782.78
2018-10-15T15:03:03.388Z,97782.66
2018-10-15T15:05:33.405Z,97784.31
2018-10-15T15:08:03.336Z,97784.46
2018-10-15T15:10:49.763Z,97785.80
2018-10-15T15:13:36.372Z,97790.02
2018-10-15T15:16:05.912Z,97784.86
2018-10-15T15:18:35.560Z,97783.78
2018-10-15T15:21:05.327Z,97789.08
2018-10-15T15:23:34.909Z,97793.70
2018-10-15T15:26:04.593Z,97794.66
2018-10-15T15:28:34.213Z,97802.38
2018-10-15T15:31:03.876Z,97796.85
2018-10-15T15:33:33.497Z,97799.12
2018-10-15T15:36:03.194Z,97806.19
2018-10-15T15:38:32.836Z,97797.73
2018-10-15T15:41:02.516Z,97805.42
2018-10-15T15:43:32.134Z,97810.61
2018-10-15T15:46:01.711Z,97810.22
2018-10-15T15:48:31.304Z,97808.03
2018-10-15T15:51:00.934Z,97808.89
2018-10-15T15:53:30.614Z,97814.91
2018-10-15T15:56:00.231Z,97815.52
2018-10-15T15:58:29.849Z,97819.45
2018-10-15T16:00:59.407Z,97815.53
2018-10-15T16:03:29.281Z,97817.20
2018-10-15T16:05:58.932Z,97829.58
2018-10-15T16:08:28.570Z,97825.05
2018-10-15T16:10:58.157Z,97826.23
2018-10-15T16:13:27.453Z,97836.67
2018-10-15T16:15:56.881Z,97839.22
2018-10-15T16:18:26.300Z,97840.88
2018-10-15T16:20:55.786Z,97841.94
2018-10-15T16:23:25.333Z,97847.03
2018-10-15T16:25:54.759Z,97847.15
2018-10-15T16:28:24.386Z,97848.13
2018-10-15T16:30:53.886Z,97851.67
2018-10-15T16:33:23.284Z,97854.00
2018-10-15T16:35:52.753Z,97838.91
2018-10-15T16:38:22.189Z,97858.61
2018-10-15T16:40:51.593Z,97847.53
2018-10-15T16:43:20.996Z,97854.98
2018-10-15T16:45:50.408Z,97878.27
2018-10-15T16:48:19.818Z,97876.83
2018-10-15T16:50:49.228Z,97881.34
2018-10-15T16:53:18.648Z,97875.80
2018-10-15T16:55:48.116Z,97881.37
2018-10-15T16:58:17.540Z,97861.02
2018-10-15T17:00:46.932Z,97862.03
2018-10-15T17:03:16.348Z,97885.23
2018-10-15T17:05:45.823Z,97868.43
2018-10-15T17:08:15.220Z,97894.62
2018-10-15T17:10:44.648Z,97892.86
2018-10-15T17:13:14.040Z,97901.56
2018-10-15T17:15:43.496Z,97901.62
2018-10-15T17:18:12.915Z,97908.55
2018-10-15T17:20:42.308Z,97911.28
2018-10-15T17:23:11.741Z,97917.16
2018-10-15T17:25:41.157Z,97917.69
2018-10-15T17:28:10.551Z,97921.92
2018-10-15T17:30:39.951Z,97920.44
2018-10-15T17:33:09.371Z,97926.28
2018-10-15T17:35:38.775Z,97933.42
2018-10-15T17:38:08.288Z,97935.75
2018-10-15T17:40:37.705Z,97933.99
2018-10-15T17:43:07.242Z,97942.02
2018-10-15T17:45:36.680Z,97918.33
2018-10-15T17:48:06.194Z,97920.27
2018-10-15T17:50:35.692Z,97924.34
2018-10-15T17:53:05.278Z,97942.67
2018-10-15T17:55:35.245Z,97946.51
2018-10-15T17:58:05.040Z,97947.46
2018-10-15T18:00:36.503Z,97944.57
2018-10-15T18:03:07.262Z,97932.66
2018-10-15T18:05:37.684Z,97956.79
2018-10-15T18:08:07.516Z,97957.11
2018-10-15T18:10:38.398Z,97956.81
2018-10-15T18:13:07.968Z,97951.95
2018-10-15T18:15:37.432Z,97959.63
2018-10-15T18:18:07.057Z,97954.09
2018-10-15T18:20:37.624Z,97956.55
2018-10-15T18:23:07.521Z,97960.13
2018-10-15T18:25:37.913Z,97963.61
2018-10-15T18:28:08.246Z,97940.30
2018-10-15T18:30:38.932Z,97962.05
2018-10-15T18:33:10.856Z,97962.07
2018-10-15T18:35:43.277Z,97967.37
2018-10-15T18:38:14.291Z,97973.03
2018-10-15T18:40:44.787Z,97969.26
2018-10-15T18:43:15.797Z,97962.61
2018-10-15T18:45:48.165Z,97965.61
2018-10-15T18:48:19.945Z,97964.56
2018-10-15T18:50:52.727Z,97960.44
2018-10-15T18:53:25.177Z,97966.19
2018-10-15T18:55:57.893Z,97972.03
2018-10-15T18:58:30.517Z,97975.08
2018-10-15T19:01:02.999Z,97978.56
2018-10-15T19:03:35.418Z,97986.31
2018-10-15T19:06:08.115Z,97983.11
2018-10-15T19:08:40.969Z,97987.29
2018-10-15T19:11:13.804Z,97983.61
2018-10-15T19:13:46.368Z,97989.69
2018-10-15T19:16:19.096Z,97987.73
2018-10-15T19:18:51.775Z,97990.09
2018-10-15T19:21:24.568Z,97988.52
2018-10-15T19:23:57.016Z,97986.20
2018-10-15T19:26:29.462Z,97992.36
2018-10-15T19:29:02.587Z,97989.99
2018-10-15T19:31:35.334Z,97994.49
2018-10-15T19:34:07.705Z,97986.78
2018-10-15T19:36:40.332Z,97996.19
2018-10-15T19:39:15.161Z,97997.92
2018-10-15T19:41:47.760Z,97991.58
2018-10-15T19:44:20.251Z,97991.34
2018-10-15T19:46:52.773Z,97996.28
2018-10-15T19:49:25.539Z,97997.27
2018-10-15T19:51:58.215Z,97996.87
2018-10-15T19:54:30.873Z,98004.19
2018-10-15T19:57:03.488Z,98004.67
2018-10-15T19:59:35.896Z,98003.08
2018-10-15T20:02:08.686Z,98004.91
2018-10-15T20:04:41.354Z,98007.17
2018-10-15T20:07:13.898Z,98009.03
2018-10-15T20:09:46.296Z,98005.62
2018-10-15T20:12:18.847Z,98008.63
2018-10-15T20:14:51.254Z,98012.09
2018-10-15T20:17:23.713Z,98011.28
2018-10-15T20:19:56.266Z,98017.80
2018-10-15T20:22:35.221Z,98019.05
2018-10-15T20:25:08.742Z,98022.14
2018-10-15T20:27:42.057Z,98023.47
2018-10-15T20:30:14.938Z,98028.32
2018-10-15T20:32:48.176Z,98031.62
2018-10-15T20:35:19.064Z,98040.84
2018-10-15T20:37:49.570Z,98041.91
2018-10-15T20:40:20.073Z,98040.13
2018-10-15T20:42:50.162Z,98043.06
2018-10-15T20:45:20.217Z,98040.13
2018-10-15T20:47:50.626Z,98037.12
2018-10-15T20:50:20.110Z,98035.77
2018-10-15T20:52:49.555Z,98038.44
2018-10-15T20:55:18.968Z,98042.95
2018-10-15T20:57:48.545Z,98043.48
2018-10-15T21:00:17.848Z,98042.72
2018-10-15T21:02:47.289Z,98039.39
2018-10-15T21:05:16.730Z,97998.71
2018-10-15T21:07:46.173Z,98037.77
2018-10-15T21:10:15.704Z,98032.64
2018-10-15T21:12:45.123Z,98017.47
2018-10-15T21:15:14.534Z,98037.61
2018-10-15T21:17:43.980Z,98035.53
2018-10-15T21:20:13.428Z,98036.42
2018-10-15T21:22:42.891Z,98031.36
2018-10-15T21:25:12.607Z,98036.47
2018-10-15T21:27:42.028Z,98041.50
2018-10-15T21:30:11.793Z,98040.10
2018-10-15T21:32:41.204Z,98035.36
2018-10-15T21:35:11.257Z,98041.75
2018-10-15T21:37:40.696Z,98037.48
2018-10-15T21:40:10.115Z,98042.62
2018-10-15T21:42:39.670Z,98045.75
2018-10-15T21:45:09.728Z,98049.20
2018-10-15T21:47:39.436Z,98045.41
2018-10-15T21:50:10.827Z,98043.77
2018-10-15T21:52:40.491Z,98039.55
2018-10-15T21:55:11.492Z,98045.96
2018-10-15T21:57:41.124Z,98046.02
2018-10-15T22:00:14.226Z,98043.61
2018-10-15T22:02:44.197Z,98043.70
2018-10-15T22:05:13.620Z,98043.70
2018-10-15T22:07:43.061Z,98044.11
2018-10-15T22:10:17.700Z,98047.99
2018-10-15T22:12:47.100Z,98052.69
2018-10-15T22:15:16.491Z,98050.55
2018-10-15T22:17:45.943Z,98058.28
2018-10-15T22:20:15.371Z,98032.36
2018-10-15T22:22:44.840Z,98028.13
2018-10-15T22:25:14.322Z,98057.58
2018-10-15T22:27:43.743Z,98051.17
2018-10-15T22:30:13.784Z,98053.34
2018-10-15T22:32:43.263Z,98051.22
2018-10-15T22:35:12.673Z,98052.46
2018-10-15T22:37:42.088Z,98053.70
2018-10-15T22:40:11.723Z,98048.56
2018-10-15T22:42:41.392Z,98047.75
2018-10-15T22:45:12.515Z,98049.04
2018-10-15T22:47:42.875Z,98048.19
2018-10-15T22:50:12.493Z,98054.17
2018-10-15T22:52:41.900Z,98056.77
2018-10-15T22:55:11.408Z,98058.09
2018-10-15T22:57:40.837Z,98056.38
2018-10-15T23:00:15.789Z,98052.97
2018-10-15T23:02:45.167Z,98058.13
2018-10-15T23:05:14.720Z,98061.98
2018-10-15T23:07:44.148Z,98070.55
2018-10-15T23:10:18.777Z,98066.70
2018-10-15T23:12:48.383Z,98070.55
2018-10-15T23:15:17.883Z,98072.25
2018-10-15T23:17:47.264Z,98074.82
2018-10-15T23:20:17.737Z,98067.99
2018-10-15T23:22:47.152Z,98066.30
2018-10-15T23:25:16.532Z,98066.30
2018-10-15T23:27:45.983Z,98067.56
2018-10-15T23:30:15.375Z,98069.28
2018-10-15T23:32:44.804Z,98073.12
2018-10-15T23:35:14.211Z,98077.81
2018-10-15T23:37:43.833Z,98077.80
2018-10-15T23:40:14.067Z,98059.47
2018-10-15T23:42:43.486Z,98087.61
2018-10-15T23:45:13.496Z,98088.87
2018-10-15T23:47:43.059Z,98091.44
2018-10-15T23:50:14.329Z,98092.27
2018-10-15T23:52:43.859Z,98098.25
2018-10-15T23:55:13.811Z,98102.91
2018-10-15T23:57:43.275Z,98099.91
